sensor_id;sensor_type;location;lat;lon;timestamp;pressure;altitude;pressure_sealevel;temperature;humidity
6938;BME280;40040;42.706;23.372;2023-02-12T00:01:38;144207.19;;;0.06;60.35
6938;BME280;40040;42.706;23.372;2023-02-12T00:04:05;144221.88;;;0.12;60.48
6938;BME280;40040;42.706;23.372;2023-02-12T00:06:32;144209.66;;;0.07;60.31
6938;BME280;40040;42.706;23.372;2023-02-12T00:08:59;144213.31;;;0.08;60.17
6938;BME280;40040;42.706;23.372;2023-02-12T00:11:27;144219.41;;;0.11;59.79
6938;BME280;40040;42.706;23.372;2023-02-12T00:13:55;144224.31;;;0.13;59.41
6938;BME280;40040;42.706;23.372;2023-02-12T00:16:23;144224.31;;;0.13;59.79
6938;BME280;40040;42.706;23.372;2023-02-12T00:18:53;144201.09;;;0.03;59.53
6938;BME280;40040;42.706;23.372;2023-02-12T00:21:21;144226.78;;;0.14;59.37
6938;BME280;40040;42.706;23.372;2023-02-12T00:23:48;144224.31;;;0.13;59.74
6938;BME280;40040;42.706;23.372;2023-02-12T00:26:18;144234.09;;;0.17;59.89
6938;BME280;40040;42.706;23.372;2023-02-12T00:28:46;144241.44;;;0.20;60.11
6938;BME280;40040;42.706;23.372;2023-02-12T00:31:14;144215.75;;;0.09;59.85
6938;BME280;40040;42.706;23.372;2023-02-12T00:33:41;144246.31;;;0.22;59.86
6938;BME280;40040;42.706;23.372;2023-02-12T00:36:13;144245.09;;;0.21;60.31
6938;BME280;40040;42.706;23.372;2023-02-12T00:38:40;144252.47;;;0.24;60.32
6938;BME280;40040;42.706;23.372;2023-02-12T00:41:07;144241.44;;;0.20;60.32
6938;BME280;40040;42.706;23.372;2023-02-12T00:43:34;144207.19;;;0.06;60.52
6938;BME280;40040;42.706;23.372;2023-02-12T00:46:01;144216.97;;;0.10;60.91
6938;BME280;40040;42.706;23.372;2023-02-12T00:48:29;144203.53;;;0.04;60.94
6938;BME280;40040;42.706;23.372;2023-02-12T00:50:56;144197.44;;;0.02;61.11
6938;BME280;40040;42.706;23.372;2023-02-12T00:53:24;144190.06;;;-0.02;61.21
6938;BME280;40040;42.706;23.372;2023-02-12T00:55:52;144190.06;;;-0.02;60.97
6938;BME280;40040;42.706;23.372;2023-02-12T00:58:19;144192.53;;;-0.01;61.00
6938;BME280;40040;42.706;23.372;2023-02-12T01:00:46;144190.06;;;-0.02;61.11
6938;BME280;40040;42.706;23.372;2023-02-12T01:03:13;144177.84;;;-0.07;61.04
6938;BME280;40040;42.706;23.372;2023-02-12T01:05:41;144187.63;;;-0.03;60.89
6938;BME280;40040;42.706;23.372;2023-02-12T01:08:10;144176.66;;;-0.07;61.01
6938;BME280;40040;42.706;23.372;2023-02-12T01:10:39;144163.19;;;-0.13;61.29
6938;BME280;40040;42.706;23.372;2023-02-12T01:13:06;144166.84;;;-0.11;61.30
6938;BME280;40040;42.706;23.372;2023-02-12T01:15:33;144122.81;;;-0.29;61.80
6938;BME280;40040;42.706;23.372;2023-02-12T01:17:59;144139.94;;;-0.22;61.78
6938;BME280;40040;42.706;23.372;2023-02-12T01:20:26;144141.16;;;-0.22;61.83
6938;BME280;40040;42.706;23.372;2023-02-12T01:22:53;144113.06;;;-0.33;62.03
6938;BME280;40040;42.706;23.372;2023-02-12T01:25:20;144138.69;;;-0.23;62.36
6938;BME280;40040;42.706;23.372;2023-02-12T01:27:48;144131.38;;;-0.26;62.55
6938;BME280;40040;42.706;23.372;2023-02-12T01:30:18;144133.84;;;-0.25;62.38
6938;BME280;40040;42.706;23.372;2023-02-12T01:32:47;144111.84;;;-0.34;62.54
6938;BME280;40040;42.706;23.372;2023-02-12T01:35:14;144116.72;;;-0.32;62.77
6938;BME280;40040;42.706;23.372;2023-02-12T01:37:41;144131.38;;;-0.26;62.93
6938;BME280;40040;42.706;23.372;2023-02-12T01:40:10;144126.47;;;-0.28;62.81
6938;BME280;40040;42.706;23.372;2023-02-12T01:42:39;144048.28;;;-0.60;62.84
6938;BME280;40040;42.706;23.372;2023-02-12T01:45:44;144143.59;;;-0.21;62.98
6938;BME280;40040;42.706;23.372;2023-02-12T01:48:12;144148.50;;;-0.19;62.85
6938;BME280;40040;42.706;23.372;2023-02-12T01:50:40;144154.63;;;-0.16;63.19
6938;BME280;40040;42.706;23.372;2023-02-12T01:53:08;144155.81;;;-0.16;63.25
6938;BME280;40040;42.706;23.372;2023-02-12T01:55:35;144168.09;;;-0.11;63.28
6938;BME280;40040;42.706;23.372;2023-02-12T01:58:03;144146.06;;;-0.20;63.30
6938;BME280;40040;42.706;23.372;2023-02-12T02:00:30;144169.28;;;-0.10;63.61
6938;BME280;40040;42.706;23.372;2023-02-12T02:03:00;144176.66;;;-0.07;63.58
6938;BME280;40040;42.706;23.372;2023-02-12T02:05:32;144175.41;;;-0.08;63.62
6938;BME280;40040;42.706;23.372;2023-02-12T02:08:04;144175.41;;;-0.08;63.73
6938;BME280;40040;42.706;23.372;2023-02-12T02:10:31;144175.41;;;-0.08;63.92
6938;BME280;40040;42.706;23.372;2023-02-12T02:12:58;144160.72;;;-0.14;64.32
6938;BME280;40040;42.706;23.372;2023-02-12T02:15:45;144114.25;;;-0.33;64.61
6938;BME280;40040;42.706;23.372;2023-02-12T02:18:18;144150.97;;;-0.18;64.92
6938;BME280;40040;42.706;23.372;2023-02-12T02:24:21;144126.47;;;-0.28;65.82
6938;BME280;40040;42.706;23.372;2023-02-12T02:27:07;144131.38;;;-0.26;66.00
6938;BME280;40040;42.706;23.372;2023-02-12T02:30:22;144121.59;;;-0.30;65.74
6938;BME280;40040;42.706;23.372;2023-02-12T02:33:05;144121.59;;;-0.30;65.88
6938;BME280;40040;42.706;23.372;2023-02-12T02:35:40;144119.16;;;-0.31;66.20
6938;BME280;40040;42.706;23.372;2023-02-12T02:38:21;144077.59;;;-0.48;66.31
6938;BME280;40040;42.706;23.372;2023-02-12T02:40:54;144076.38;;;-0.48;66.66
6938;BME280;40040;42.706;23.372;2023-02-12T02:43:27;144102.03;;;-0.38;66.29
6938;BME280;40040;42.706;23.372;2023-02-12T02:45:59;144126.47;;;-0.28;66.24
6938;BME280;40040;42.706;23.372;2023-02-12T02:48:32;144121.59;;;-0.30;66.43
6938;BME280;40040;42.706;23.372;2023-02-12T02:51:04;144121.59;;;-0.30;66.81
6938;BME280;40040;42.706;23.372;2023-02-12T02:53:34;144122.81;;;-0.29;66.68
6938;BME280;40040;42.706;23.372;2023-02-12T02:56:06;144127.72;;;-0.27;66.99
6938;BME280;40040;42.706;23.372;2023-02-12T02:58:43;144138.69;;;-0.23;66.88
6938;BME280;40040;42.706;23.372;2023-02-12T03:01:16;144065.38;;;-0.53;67.11
6938;BME280;40040;42.706;23.372;2023-02-12T03:03:47;144094.72;;;-0.41;66.91
6938;BME280;40040;42.706;23.372;2023-02-12T03:06:21;144132.63;;;-0.25;67.04
6938;BME280;40040;42.706;23.372;2023-02-12T03:08:54;144133.84;;;-0.25;67.11
6938;BME280;40040;42.706;23.372;2023-02-12T03:11:24;144150.97;;;-0.18;67.03
6938;BME280;40040;42.706;23.372;2023-02-12T03:13:56;144121.59;;;-0.30;66.95
6938;BME280;40040;42.706;23.372;2023-02-12T03:16:29;144152.16;;;-0.17;67.12
6938;BME280;40040;42.706;23.372;2023-02-12T03:19:02;144155.81;;;-0.16;66.72
6938;BME280;40040;42.706;23.372;2023-02-12T03:21:34;144158.28;;;-0.15;66.75
6938;BME280;40040;42.706;23.372;2023-02-12T03:24:09;144153.38;;;-0.17;66.44
6938;BME280;40040;42.706;23.372;2023-02-12T03:26:41;144165.63;;;-0.12;66.12
6938;BME280;40040;42.706;23.372;2023-02-12T03:29:09;144190.06;;;-0.02;65.50
6938;BME280;40040;42.706;23.372;2023-02-12T03:31:45;144194.97;;;0.00;65.25
6938;BME280;40040;42.706;23.372;2023-02-12T03:34:20;144174.16;;;-0.08;64.79
6938;BME280;40040;42.706;23.372;2023-02-12T03:36:52;144216.97;;;0.10;64.57
6938;BME280;40040;42.706;23.372;2023-02-12T03:39:29;144234.09;;;0.17;64.37
6938;BME280;40040;42.706;23.372;2023-02-12T03:42:02;144236.53;;;0.18;64.60
6938;BME280;40040;42.706;23.372;2023-02-12T03:44:45;144241.44;;;0.20;64.65
6938;BME280;40040;42.706;23.372;2023-02-12T03:47:20;144264.69;;;0.29;64.44
6938;BME280;40040;42.706;23.372;2023-02-12T03:49:54;144270.78;;;0.32;64.17
6938;BME280;40040;42.706;23.372;2023-02-12T03:52:26;144267.13;;;0.30;64.28
6938;BME280;40040;42.706;23.372;2023-02-12T03:54:54;144270.78;;;0.32;64.07
6938;BME280;40040;42.706;23.372;2023-02-12T03:57:23;144263.44;;;0.29;64.56
6938;BME280;40040;42.706;23.372;2023-02-12T03:59:55;144287.91;;;0.39;64.00
6938;BME280;40040;42.706;23.372;2023-02-12T04:02:23;144290.38;;;0.40;64.05
6938;BME280;40040;42.706;23.372;2023-02-12T04:04:51;144300.13;;;0.44;63.64
6938;BME280;40040;42.706;23.372;2023-02-12T04:07:17;144291.56;;;0.40;63.48
6938;BME280;40040;42.706;23.372;2023-02-12T04:09:44;144256.13;;;0.26;64.03
6938;BME280;40040;42.706;23.372;2023-02-12T04:12:26;144287.91;;;0.39;64.06
6938;BME280;40040;42.706;23.372;2023-02-12T04:15:05;144290.38;;;0.40;64.07
6938;BME280;40040;42.706;23.372;2023-02-12T04:17:44;144302.59;;;0.45;64.13
6938;BME280;40040;42.706;23.372;2023-02-12T04:20:21;144262.22;;;0.28;64.23
6938;BME280;40040;42.706;23.372;2023-02-12T04:22:54;144300.13;;;0.44;64.64
6938;BME280;40040;42.706;23.372;2023-02-12T04:25:39;144285.47;;;0.38;65.31
6938;BME280;40040;42.706;23.372;2023-02-12T04:28:12;144275.69;;;0.34;65.75
6938;BME280;40040;42.706;23.372;2023-02-12T04:30:46;144258.56;;;0.27;65.87
6938;BME280;40040;42.706;23.372;2023-02-12T04:33:20;144258.56;;;0.27;66.29
6938;BME280;40040;42.706;23.372;2023-02-12T04:35:50;144187.63;;;-0.03;66.30
6938;BME280;40040;42.706;23.372;2023-02-12T04:38:23;144248.81;;;0.23;66.04
6938;BME280;40040;42.706;23.372;2023-02-12T04:40:52;144230.44;;;0.15;66.38
6938;BME280;40040;42.706;23.372;2023-02-12T04:43:27;144265.94;;;0.30;66.67
6938;BME280;40040;42.706;23.372;2023-02-12T04:45:54;144146.06;;;-0.20;66.71
6938;BME280;40040;42.706;23.372;2023-02-12T04:48:22;144285.47;;;0.38;66.81
6938;BME280;40040;42.706;23.372;2023-02-12T04:50:49;144298.94;;;0.43;66.32
6938;BME280;40040;42.706;23.372;2023-02-12T04:53:16;144286.72;;;0.38;66.34
6938;BME280;40040;42.706;23.372;2023-02-12T04:55:43;144295.28;;;0.42;66.44
6938;BME280;40040;42.706;23.372;2023-02-12T04:58:10;144242.66;;;0.20;66.65
6938;BME280;40040;42.706;23.372;2023-02-12T05:00:37;144199.84;;;0.03;66.46
6938;BME280;40040;42.706;23.372;2023-02-12T05:03:04;144292.81;;;0.41;66.72
6938;BME280;40040;42.706;23.372;2023-02-12T05:05:32;144308.69;;;0.47;66.75
6938;BME280;40040;42.706;23.372;2023-02-12T05:07:59;144301.38;;;0.44;66.83
6938;BME280;40040;42.706;23.372;2023-02-12T05:10:26;144319.72;;;0.52;66.47
6938;BME280;40040;42.706;23.372;2023-02-12T05:12:54;144335.63;;;0.58;66.55
6938;BME280;40040;42.706;23.372;2023-02-12T05:15:21;144316.06;;;0.50;66.80
6938;BME280;40040;42.706;23.372;2023-02-12T05:17:48;144327.06;;;0.55;66.67
6938;BME280;40040;42.706;23.372;2023-02-12T05:20:15;144324.63;;;0.54;66.97
6938;BME280;40040;42.706;23.372;2023-02-12T05:22:43;144334.38;;;0.58;66.71
6938;BME280;40040;42.706;23.372;2023-02-12T05:25:10;144334.38;;;0.58;66.17
6938;BME280;40040;42.706;23.372;2023-02-12T05:27:37;144331.97;;;0.57;66.28
6938;BME280;40040;42.706;23.372;2023-02-12T05:30:05;144330.72;;;0.56;65.47
6938;BME280;40040;42.706;23.372;2023-02-12T05:32:33;144357.66;;;0.67;65.59
6938;BME280;40040;42.706;23.372;2023-02-12T05:35:00;144360.09;;;0.68;65.23
6938;BME280;40040;42.706;23.372;2023-02-12T05:37:27;144394.34;;;0.82;65.36
6938;BME280;40040;42.706;23.372;2023-02-12T05:39:57;144391.94;;;0.81;65.07
6938;BME280;40040;42.706;23.372;2023-02-12T05:42:24;144402.91;;;0.86;65.90
6938;BME280;40040;42.706;23.372;2023-02-12T05:44:50;144418.81;;;0.92;67.21
6938;BME280;40040;42.706;23.372;2023-02-12T05:47:17;144410.28;;;0.89;67.97
6938;BME280;40040;42.706;23.372;2023-02-12T05:49:44;144420.06;;;0.93;67.99
6938;BME280;40040;42.706;23.372;2023-02-12T05:52:11;144369.91;;;0.72;68.36
6938;BME280;40040;42.706;23.372;2023-02-12T05:54:38;144400.50;;;0.85;68.40
6938;BME280;40040;42.706;23.372;2023-02-12T05:57:07;144407.81;;;0.88;68.88
6938;BME280;40040;42.706;23.372;2023-02-12T05:59:33;144382.13;;;0.77;69.37
6938;BME280;40040;42.706;23.372;2023-02-12T06:02:00;144412.72;;;0.90;69.44
6938;BME280;40040;42.706;23.372;2023-02-12T06:04:27;144376.03;;;0.75;70.04
6938;BME280;40040;42.706;23.372;2023-02-12T06:06:55;144400.50;;;0.85;70.67
6938;BME280;40040;42.706;23.372;2023-02-12T06:09:23;144383.38;;;0.78;71.34
6938;BME280;40040;42.706;23.372;2023-02-12T06:11:50;144362.56;;;0.69;72.93
6938;BME280;40040;42.706;23.372;2023-02-12T06:14:19;144379.69;;;0.76;75.37
6938;BME280;40040;42.706;23.372;2023-02-12T06:16:49;144383.38;;;0.78;80.03
6938;BME280;40040;42.706;23.372;2023-02-12T06:19:17;144341.75;;;0.61;84.27
6938;BME280;40040;42.706;23.372;2023-02-12T06:21:44;144363.75;;;0.70;85.81
6938;BME280;40040;42.706;23.372;2023-02-12T06:24:12;144363.75;;;0.70;86.67
6938;BME280;40040;42.706;23.372;2023-02-12T06:26:40;144358.91;;;0.68;87.12
6938;BME280;40040;42.706;23.372;2023-02-12T06:29:07;144338.09;;;0.59;87.83
6938;BME280;40040;42.706;23.372;2023-02-12T06:31:36;144365.00;;;0.70;88.44
6938;BME280;40040;42.706;23.372;2023-02-12T06:34:05;144374.78;;;0.74;89.59
6938;BME280;40040;42.706;23.372;2023-02-12T06:36:32;144358.91;;;0.68;93.65
6938;BME280;40040;42.706;23.372;2023-02-12T06:39:00;144331.97;;;0.57;96.55
6938;BME280;40040;42.706;23.372;2023-02-12T06:41:27;144356.41;;;0.67;99.49
6938;BME280;40040;42.706;23.372;2023-02-12T06:43:54;144361.31;;;0.69;100.00
6938;BME280;40040;42.706;23.372;2023-02-12T06:46:21;144371.13;;;0.73;100.00
6938;BME280;40040;42.706;23.372;2023-02-12T06:48:52;144371.13;;;0.73;100.00
6938;BME280;40040;42.706;23.372;2023-02-12T06:51:18;144368.66;;;0.72;100.00
6938;BME280;40040;42.706;23.372;2023-02-12T06:53:46;144384.59;;;0.78;100.00
6938;BME280;40040;42.706;23.372;2023-02-12T06:56:13;144385.78;;;0.79;100.00
6938;BME280;40040;42.706;23.372;2023-02-12T06:58:42;144336.88;;;0.59;100.00
6938;BME280;40040;42.706;23.372;2023-02-12T07:01:11;144387.03;;;0.79;100.00
6938;BME280;40040;42.706;23.372;2023-02-12T07:03:39;144383.38;;;0.78;100.00
6938;BME280;40040;42.706;23.372;2023-02-12T07:06:08;144400.50;;;0.85;100.00
6938;BME280;40040;42.706;23.372;2023-02-12T07:08:35;144413.97;;;0.90;100.00
6938;BME280;40040;42.706;23.372;2023-02-12T07:11:02;144379.69;;;0.76;100.00
6938;BME280;40040;42.706;23.372;2023-02-12T07:13:29;144424.97;;;0.95;100.00
6938;BME280;40040;42.706;23.372;2023-02-12T07:16:02;144447.00;;;1.04;100.00
6938;BME280;40040;42.706;23.372;2023-02-12T07:18:29;144344.19;;;0.62;100.00
6938;BME280;40040;42.706;23.372;2023-02-12T07:20:56;144451.91;;;1.06;100.00
6938;BME280;40040;42.706;23.372;2023-02-12T07:23:24;144437.19;;;1.00;100.00
6938;BME280;40040;42.706;23.372;2023-02-12T07:25:55;144453.09;;;1.06;100.00
6938;BME280;40040;42.706;23.372;2023-02-12T07:28:22;144424.97;;;0.95;100.00
6938;BME280;40040;42.706;23.372;2023-02-12T07:30:49;144449.44;;;1.05;100.00
6938;BME280;40040;42.706;23.372;2023-02-12T07:33:16;144459.22;;;1.09;100.00
6938;BME280;40040;42.706;23.372;2023-02-12T07:35:43;144459.22;;;1.09;100.00
6938;BME280;40040;42.706;23.372;2023-02-12T07:38:11;144458.00;;;1.08;100.00
6938;BME280;40040;42.706;23.372;2023-02-12T07:40:39;144464.13;;;1.11;100.00
6938;BME280;40040;42.706;23.372;2023-02-12T07:43:06;144427.38;;;0.96;100.00
6938;BME280;40040;42.706;23.372;2023-02-12T07:45:33;144459.22;;;1.09;100.00
6938;BME280;40040;42.706;23.372;2023-02-12T07:48:00;144456.81;;;1.08;100.00
6938;BME280;40040;42.706;23.372;2023-02-12T07:50:26;144434.75;;;0.99;100.00
6938;BME280;40040;42.706;23.372;2023-02-12T07:52:53;144449.44;;;1.05;100.00
6938;BME280;40040;42.706;23.372;2023-02-12T07:55:20;144427.38;;;0.96;100.00
6938;BME280;40040;42.706;23.372;2023-02-12T07:57:48;144438.44;;;1.00;100.00
6938;BME280;40040;42.706;23.372;2023-02-12T08:00:16;144439.66;;;1.01;100.00
6938;BME280;40040;42.706;23.372;2023-02-12T08:02:43;144376.03;;;0.75;100.00
6938;BME280;40040;42.706;23.372;2023-02-12T08:05:09;144398.03;;;0.84;100.00
6938;BME280;40040;42.706;23.372;2023-02-12T08:07:36;144431.09;;;0.97;100.00
6938;BME280;40040;42.706;23.372;2023-02-12T08:10:04;144390.69;;;0.81;100.00
6938;BME280;40040;42.706;23.372;2023-02-12T08:12:31;144464.13;;;1.11;100.00
6938;BME280;40040;42.706;23.372;2023-02-12T08:14:59;144473.94;;;1.15;100.00
6938;BME280;40040;42.706;23.372;2023-02-12T08:17:26;144475.13;;;1.15;100.00
6938;BME280;40040;42.706;23.372;2023-02-12T08:19:53;144482.50;;;1.19;100.00
6938;BME280;40040;42.706;23.372;2023-02-12T08:22:20;144476.38;;;1.16;100.00
6938;BME280;40040;42.706;23.372;2023-02-12T08:24:46;144486.19;;;1.20;100.00
6938;BME280;40040;42.706;23.372;2023-02-12T08:27:13;144488.59;;;1.21;100.00
6938;BME280;40040;42.706;23.372;2023-02-12T08:29:40;144503.31;;;1.27;100.00
6938;BME280;40040;42.706;23.372;2023-02-12T08:32:08;144510.66;;;1.30;100.00
6938;BME280;40040;42.706;23.372;2023-02-12T08:34:38;144520.47;;;1.34;100.00
6938;BME280;40040;42.706;23.372;2023-02-12T08:37:05;144529.03;;;1.38;100.00
6938;BME280;40040;42.706;23.372;2023-02-12T08:39:32;144532.69;;;1.39;100.00
6938;BME280;40040;42.706;23.372;2023-02-12T08:41:59;144537.59;;;1.41;100.00
6938;BME280;40040;42.706;23.372;2023-02-12T08:44:27;144532.69;;;1.39;100.00
6938;BME280;40040;42.706;23.372;2023-02-12T08:46:54;144448.25;;;1.04;100.00
6938;BME280;40040;42.706;23.372;2023-02-12T08:49:24;144535.13;;;1.40;100.00
6938;BME280;40040;42.706;23.372;2023-02-12T08:51:54;144513.09;;;1.31;100.00
6938;BME280;40040;42.706;23.372;2023-02-12T08:54:22;144543.69;;;1.44;100.00
6938;BME280;40040;42.706;23.372;2023-02-12T08:56:49;144543.69;;;1.44;100.00
6938;BME280;40040;42.706;23.372;2023-02-12T08:59:17;144538.78;;;1.42;100.00
6938;BME280;40040;42.706;23.372;2023-02-12T09:01:44;144551.03;;;1.47;100.00
6938;BME280;40040;42.706;23.372;2023-02-12T09:04:13;144547.38;;;1.45;100.00
6938;BME280;40040;42.706;23.372;2023-02-12T09:06:44;144559.59;;;1.50;100.00
6938;BME280;40040;42.706;23.372;2023-02-12T09:09:12;144564.50;;;1.52;100.00
6938;BME280;40040;42.706;23.372;2023-02-12T09:11:39;144563.28;;;1.52;100.00
6938;BME280;40040;42.706;23.372;2023-02-12T09:14:09;144579.22;;;1.58;100.00
6938;BME280;40040;42.706;23.372;2023-02-12T09:16:37;144584.13;;;1.60;99.31
6938;BME280;40040;42.706;23.372;2023-02-12T09:19:05;144598.81;;;1.66;98.22
6938;BME280;40040;42.706;23.372;2023-02-12T09:21:32;144587.81;;;1.62;98.43
6938;BME280;40040;42.706;23.372;2023-02-12T09:24:02;144611.03;;;1.71;98.14
6938;BME280;40040;42.706;23.372;2023-02-12T09:26:29;144629.44;;;1.79;98.51
6938;BME280;40040;42.706;23.372;2023-02-12T09:28:56;144617.19;;;1.74;97.78
6938;BME280;40040;42.706;23.372;2023-02-12T09:31:25;144590.22;;;1.63;98.14
6938;BME280;40040;42.706;23.372;2023-02-12T09:33:53;144640.44;;;1.83;98.94
6938;BME280;40040;42.706;23.372;2023-02-12T09:36:20;144650.25;;;1.87;99.52
6938;BME280;40040;42.706;23.372;2023-02-12T09:38:47;144679.66;;;1.99;98.41
6938;BME280;40040;42.706;23.372;2023-02-12T09:41:41;144664.97;;;1.93;97.42
6938;BME280;40040;42.706;23.372;2023-02-12T09:44:16;144686.97;;;2.02;96.92
6938;BME280;40040;42.706;23.372;2023-02-12T09:46:49;144661.25;;;1.92;98.63
6938;BME280;40040;42.706;23.372;2023-02-12T09:52:13;144698.03;;;2.07;96.94
6938;BME280;40040;42.706;23.372;2023-02-12T09:54:42;144695.56;;;2.06;96.97
6938;BME280;40040;42.706;23.372;2023-02-12T09:57:16;144731.09;;;2.20;96.83
6938;BME280;40040;42.706;23.372;2023-02-12T09:59:47;144764.16;;;2.34;96.92
6938;BME280;40040;42.706;23.372;2023-02-12T10:02:19;144807.06;;;2.52;94.42
6938;BME280;40040;42.706;23.372;2023-02-12T10:04:47;144829.13;;;2.61;93.82
6938;BME280;40040;42.706;23.372;2023-02-12T10:07:24;144851.22;;;2.70;92.17
6938;BME280;40040;42.706;23.372;2023-02-12T10:10:05;144826.72;;;2.60;91.76
6938;BME280;40040;42.706;23.372;2023-02-12T10:12:38;144875.72;;;2.80;91.57
6938;BME280;40040;42.706;23.372;2023-02-12T10:15:16;144934.56;;;3.04;89.26
6938;BME280;40040;42.706;23.372;2023-02-12T10:17:54;144972.56;;;3.19;87.72
6938;BME280;40040;42.706;23.372;2023-02-12T10:20:43;144946.81;;;3.09;85.95
6938;BME280;40040;42.706;23.372;2023-02-12T10:26:18;145008.13;;;3.34;86.66
6938;BME280;40040;42.706;23.372;2023-02-12T10:28:48;145017.97;;;3.38;85.40
6938;BME280;40040;42.706;23.372;2023-02-12T10:31:20;145016.72;;;3.37;84.82
6938;BME280;40040;42.706;23.372;2023-02-12T10:33:50;145020.41;;;3.39;84.69
6938;BME280;40040;42.706;23.372;2023-02-12T10:36:30;145013.06;;;3.36;84.72
6938;BME280;40040;42.706;23.372;2023-02-12T10:39:02;145040.00;;;3.47;84.03
6938;BME280;40040;42.706;23.372;2023-02-12T10:41:37;144948.06;;;3.09;83.82
6938;BME280;40040;42.706;23.372;2023-02-12T10:44:08;145062.09;;;3.56;83.25
6938;BME280;40040;42.706;23.372;2023-02-12T10:46:36;145047.41;;;3.50;83.28
6938;BME280;40040;42.706;23.372;2023-02-12T10:49:04;145068.25;;;3.59;83.07
6938;BME280;40040;42.706;23.372;2023-02-12T10:51:57;145037.56;;;3.46;83.83
6938;BME280;40040;42.706;23.372;2023-02-12T10:54:34;145074.34;;;3.61;83.48
6938;BME280;40040;42.706;23.372;2023-02-12T10:57:07;145096.44;;;3.70;82.75
6938;BME280;40040;42.706;23.372;2023-02-12T10:59:37;145087.84;;;3.67;82.89
6938;BME280;40040;42.706;23.372;2023-02-12T11:02:23;145062.09;;;3.56;83.85
6938;BME280;40040;42.706;23.372;2023-02-12T11:04:51;145027.75;;;3.42;84.23
6938;BME280;40040;42.706;23.372;2023-02-12T11:07:20;145062.09;;;3.56;83.82
6938;BME280;40040;42.706;23.372;2023-02-12T11:09:49;145064.56;;;3.57;82.84
6938;BME280;40040;42.706;23.372;2023-02-12T11:12:24;145120.97;;;3.80;83.12
6938;BME280;40040;42.706;23.372;2023-02-12T11:14:57;145181.09;;;4.05;80.51
6938;BME280;40040;42.706;23.372;2023-02-12T11:17:26;145187.25;;;4.07;79.04
6938;BME280;40040;42.706;23.372;2023-02-12T11:20:07;145154.13;;;3.94;78.95
6938;BME280;40040;42.706;23.372;2023-02-12T11:22:49;145135.72;;;3.86;79.43
6938;BME280;40040;42.706;23.372;2023-02-12T11:25:17;145216.72;;;4.19;78.15
6938;BME280;40040;42.706;23.372;2023-02-12T11:27:44;145238.81;;;4.28;77.91
6938;BME280;40040;42.706;23.372;2023-02-12T11:30:25;145214.28;;;4.18;76.90
6938;BME280;40040;42.706;23.372;2023-02-12T11:32:52;145279.31;;;4.45;76.89
6938;BME280;40040;42.706;23.372;2023-02-12T11:35:21;145243.72;;;4.30;77.28
6938;BME280;40040;42.706;23.372;2023-02-12T11:37:54;145243.72;;;4.30;77.68
6938;BME280;40040;42.706;23.372;2023-02-12T11:40:23;145215.47;;;4.19;77.62
6938;BME280;40040;42.706;23.372;2023-02-12T11:42:53;145178.66;;;4.04;78.36
6938;BME280;40040;42.706;23.372;2023-02-12T11:45:27;145201.97;;;4.13;78.35
6938;BME280;40040;42.706;23.372;2023-02-12T11:47:57;145236.34;;;4.27;78.01
6938;BME280;40040;42.706;23.372;2023-02-12T11:50:26;145251.09;;;4.33;76.80
6938;BME280;40040;42.706;23.372;2023-02-12T11:52:56;145269.50;;;4.41;76.83
6938;BME280;40040;42.706;23.372;2023-02-12T11:55:25;145314.91;;;4.59;76.48
6938;BME280;40040;42.706;23.372;2023-02-12T11:58:00;145322.28;;;4.63;74.16
6938;BME280;40040;42.706;23.372;2023-02-12T12:00:29;145371.41;;;4.83;73.89
6938;BME280;40040;42.706;23.372;2023-02-12T12:03:03;145339.47;;;4.70;74.64
6938;BME280;40040;42.706;23.372;2023-02-12T12:05:37;145329.63;;;4.66;75.40
6938;BME280;40040;42.706;23.372;2023-02-12T12:08:13;145319.84;;;4.62;74.94
6938;BME280;40040;42.706;23.372;2023-02-12T12:10:46;145307.56;;;4.56;75.41
6938;BME280;40040;42.706;23.372;2023-02-12T12:13:18;145352.97;;;4.75;74.51
6938;BME280;40040;42.706;23.372;2023-02-12T12:15:50;145377.53;;;4.85;73.91
6938;BME280;40040;42.706;23.372;2023-02-12T12:18:44;145421.75;;;5.03;72.41
6938;BME280;40040;42.706;23.372;2023-02-12T12:21:35;145453.66;;;5.16;71.73
6938;BME280;40040;42.706;23.372;2023-02-12T12:24:09;145414.41;;;5.00;72.24
6938;BME280;40040;42.706;23.372;2023-02-12T12:26:41;145387.38;;;4.89;73.66
6938;BME280;40040;42.706;23.372;2023-02-12T12:29:16;145400.88;;;4.95;72.65
6938;BME280;40040;42.706;23.372;2023-02-12T12:31:48;145430.34;;;5.07;72.61
6938;BME280;40040;42.706;23.372;2023-02-12T12:34:18;145459.81;;;5.19;71.40
6938;BME280;40040;42.706;23.372;2023-02-12T12:37:14;145435.28;;;5.09;71.01
6938;BME280;40040;42.706;23.372;2023-02-12T12:39:54;145469.66;;;5.23;71.55
6938;BME280;40040;42.706;23.372;2023-02-12T12:42:54;145446.31;;;5.13;71.45
6938;BME280;40040;42.706;23.372;2023-02-12T12:45:34;145423.00;;;5.04;72.79
6938;BME280;40040;42.706;23.372;2023-02-12T12:48:16;145438.94;;;5.10;72.38
6938;BME280;40040;42.706;23.372;2023-02-12T12:51:01;145410.66;;;4.99;73.11
6938;BME280;40040;42.706;23.372;2023-02-12T12:53:44;145421.75;;;5.03;73.04
6938;BME280;40040;42.706;23.372;2023-02-12T12:56:27;145386.13;;;4.89;73.43
6938;BME280;40040;42.706;23.372;2023-02-12T12:59:13;145348.06;;;4.73;73.79
6938;BME280;40040;42.706;23.372;2023-02-12T13:02:13;145292.81;;;4.50;74.43
6938;BME280;40040;42.706;23.372;2023-02-12T13:04:57;145376.28;;;4.85;74.50
6938;BME280;40040;42.706;23.372;2023-02-12T13:07:44;145334.53;;;4.68;73.96
6938;BME280;40040;42.706;23.372;2023-02-12T13:10:26;145346.81;;;4.73;75.17
6938;BME280;40040;42.706;23.372;2023-02-12T13:13:08;145359.13;;;4.78;75.51
6938;BME280;40040;42.706;23.372;2023-02-12T13:15:43;145371.41;;;4.83;74.92
6938;BME280;40040;42.706;23.372;2023-02-12T13:18:22;145329.63;;;4.66;75.42
6938;BME280;40040;42.706;23.372;2023-02-12T13:20:58;145341.94;;;4.71;75.63
6938;BME280;40040;42.706;23.372;2023-02-12T13:23:35;145278.09;;;4.44;76.56
6938;BME280;40040;42.706;23.372;2023-02-12T13:26:11;145314.91;;;4.59;77.04